Terminal Aerodrome Forecast
Issued by NWS

Home | Current Version | Previous Version | Text Only | Print | Product List | Glossary On
Versions: 1 2 3 4 5 6 7 8 9 10 11 12 13 14 15 16 17 18 19 20 21 22 23 24 25 26 27 28 29 30 31 32 33 34 35 36
789
FTUS41 KBOX 061122
TAFACK
TAF
KACK 061122Z 0612/0712 03010KT P6SM OVC008
     FM061600 06014KT P6SM BKN015
     FM061800 07015KT P6SM VCSH BKN025
     FM070000 08015KT 6SM -RA BR OVC015
     FM070600 10010KT P6SM VCSH BKN025=

USA.gov is the U.S. government's official web portal to all federal, state and local government web resources and services.